KLHB/LHB METAR and TAF weather

Enter ICAO airport designator
Station Type Date Time Source
KLHB METAR 2020/11/28 20:15 UTC NOAA

KLHB 282015Z AUTO 00000KT 7SM RA OVC015 16/12 A3007 RMK AO2 T01570124


Station Type Date Time Source
KLHB Decoded METAR 2020/11/28 20:15 UTC NOAA

Hearne, Hearne Municipal Airport, TX, United States (KLHB) 30-52-18N 096-37-20W
Nov 28, 2020 - 03:15 PM EST / 2020.11.28 2015 UTC
Wind: Calm:0
Visibility: 7 mile(s):0
Sky conditions: overcast
Weather: rain
Temperature: 60.3 F (15.7 C)
Dew Point: 54.3 F (12.4 C)
Relative Humidity: 80%
Pressure (altimeter): 30.07 in. Hg (1018 hPa)
ob: KLHB 282015Z AUTO 00000KT 7SM RA OVC015 16/12 A3007 RMK AO2 T01570124
cycle: 20

Station Type Date Time Source
KLHB TAF UTC NOAA

Error!

Example: see airport list